createdAt,value
2022-08-03T00:03:27.869Z,17.20
2022-08-03T00:07:29.682Z,17.20
2022-08-03T00:11:31.494Z,17.20
2022-08-03T00:15:33.339Z,17.20
2022-08-03T00:19:35.083Z,17.10
2022-08-03T00:23:51.436Z,17.00
2022-08-03T00:27:54.427Z,17.00
2022-08-03T00:31:59.575Z,17.00
2022-08-03T00:36:02.060Z,17.00
2022-08-03T00:40:04.225Z,16.90
2022-08-03T00:44:07.368Z,16.90
2022-08-03T00:48:19.536Z,16.90
2022-08-03T00:52:32.399Z,16.80
2022-08-03T00:56:34.155Z,16.80
2022-08-03T01:00:38.815Z,16.70
2022-08-03T01:04:40.548Z,16.70
2022-08-03T01:09:00.885Z,16.70
2022-08-03T01:13:59.801Z,16.60
2022-08-03T01:17:54.374Z,16.60
2022-08-03T01:22:16.583Z,16.60
2022-08-03T01:26:46.888Z,16.50
2022-08-03T01:30:49.827Z,16.50
2022-08-03T01:34:58.660Z,16.50
2022-08-03T01:39:03.623Z,16.40
2022-08-03T01:43:08.747Z,16.40
2022-08-03T01:47:12.679Z,16.40
2022-08-03T01:51:17.162Z,16.40
2022-08-03T01:55:20.325Z,16.30
2022-08-03T01:59:23.277Z,16.30
2022-08-03T02:03:26.120Z,16.30
2022-08-03T02:07:30.174Z,16.30
2022-08-03T02:11:34.925Z,16.20
2022-08-03T02:15:38.170Z,16.20
2022-08-03T02:19:42.316Z,16.20
2022-08-03T02:23:44.123Z,16.20
2022-08-03T02:27:55.031Z,16.20
2022-08-03T02:31:59.448Z,16.20
2022-08-03T02:36:04.285Z,16.10
2022-08-03T02:40:22.852Z,16.10
2022-08-03T02:44:47.503Z,16.10
2022-08-03T02:48:51.145Z,16.00
2022-08-03T02:52:54.722Z,16.00
2022-08-03T02:56:58.094Z,16.00
2022-08-03T03:01:11.285Z,15.90
2022-08-03T03:05:54.491Z,15.90
2022-08-03T03:09:40.267Z,15.90
2022-08-03T03:13:44.871Z,15.80
2022-08-03T03:17:49.606Z,15.80
2022-08-03T03:22:02.271Z,15.80
2022-08-03T03:26:05.167Z,15.80
2022-08-03T03:30:07.622Z,15.70
2022-08-03T03:34:09.876Z,15.70
2022-08-03T03:38:12.719Z,15.80
2022-08-03T03:42:14.744Z,15.70
2022-08-03T03:46:16.887Z,15.70
2022-08-03T03:50:19.358Z,15.60
2022-08-03T03:54:21.491Z,15.60
2022-08-03T03:58:23.246Z,15.60
2022-08-03T04:02:26.894Z,15.60
2022-08-03T04:06:47.100Z,15.60
2022-08-03T04:11:01.719Z,15.50
2022-08-03T04:15:04.460Z,15.60
2022-08-03T04:19:10.531Z,15.60
2022-08-03T04:23:15.803Z,15.60
2022-08-03T04:27:22.107Z,15.70
2022-08-03T04:31:25.667Z,15.70
2022-08-03T04:35:58.596Z,15.70
2022-08-03T04:39:54.313Z,15.90
2022-08-03T04:44:01.146Z,15.80
2022-08-03T04:48:04.474Z,15.90
2022-08-03T04:52:08.446Z,16.20
2022-08-03T04:56:10.439Z,16.70
2022-08-03T05:00:12.836Z,16.90
2022-08-03T05:04:14.635Z,17.00
2022-08-03T05:08:16.366Z,17.10
2022-08-03T05:12:23.655Z,17.20
2022-08-03T05:16:25.829Z,17.30
2022-08-03T05:20:27.515Z,17.40
2022-08-03T05:24:29.218Z,17.50
2022-08-03T05:28:30.963Z,17.60
2022-08-03T05:32:33.139Z,17.70
2022-08-03T05:36:34.917Z,17.90
2022-08-03T05:40:36.635Z,18.10
2022-08-03T05:44:38.934Z,18.30
2022-08-03T05:48:41.397Z,18.40
2022-08-03T05:52:43.962Z,18.60
2022-08-03T05:56:45.814Z,18.70
2022-08-03T06:00:47.548Z,18.80
2022-08-03T06:04:49.379Z,18.90
2022-08-03T06:08:51.423Z,19.10
2022-08-03T06:12:53.659Z,19.10
2022-08-03T06:16:55.391Z,19.20
2022-08-03T06:20:57.239Z,19.40
2022-08-03T06:24:59.022Z,19.70
2022-08-03T06:29:06.805Z,19.70
2022-08-03T06:33:11.702Z,19.90
2022-08-03T06:37:13.352Z,20.10
2022-08-03T06:41:15.174Z,20.30
2022-08-03T06:45:16.959Z,20.50
2022-08-03T06:49:19.105Z,20.70
2022-08-03T06:53:21.647Z,20.80
2022-08-03T06:57:23.573Z,21.00
2022-08-03T07:01:25.323Z,21.00
2022-08-03T07:05:27.074Z,21.10
2022-08-03T07:09:28.861Z,21.30
2022-08-03T07:13:30.587Z,21.50
2022-08-03T07:17:34.567Z,21.60
2022-08-03T07:21:36.296Z,21.70
2022-08-03T07:25:37.983Z,21.90
2022-08-03T07:29:39.645Z,22.30
2022-08-03T07:33:41.300Z,22.40
2022-08-03T07:37:43.077Z,22.60
2022-08-03T07:41:56.739Z,22.80
2022-08-03T07:45:58.558Z,22.80
2022-08-03T07:50:00.275Z,23.00
2022-08-03T07:54:02.063Z,23.00
2022-08-03T07:58:24.342Z,23.20
2022-08-03T08:02:26.330Z,23.20
2022-08-03T08:06:27.992Z,23.50
2022-08-03T08:10:30.092Z,23.60
2022-08-03T08:14:31.880Z,23.40
2022-08-03T08:18:34.378Z,23.60
2022-08-03T08:22:36.077Z,23.70
2022-08-03T08:26:39.204Z,23.80
2022-08-03T08:30:40.851Z,24.10
2022-08-03T08:34:42.779Z,24.30
2022-08-03T08:38:45.020Z,24.70
2022-08-03T08:42:57.827Z,25.20
2022-08-03T08:47:03.023Z,26.50
2022-08-03T08:51:05.968Z,27.40
2022-08-03T08:55:09.728Z,28.20
2022-08-03T08:59:11.689Z,28.90
2022-08-03T09:03:14.572Z,29.60
2022-08-03T09:07:36.316Z,29.90
2022-08-03T09:12:00.819Z,30.50
2022-08-03T09:16:11.008Z,30.50
2022-08-03T09:20:12.810Z,30.90
2022-08-03T09:24:31.146Z,31.20
2022-08-03T09:29:00.407Z,31.60
2022-08-03T09:33:09.744Z,31.90
2022-08-03T09:37:16.970Z,32.00
2022-08-03T09:41:19.552Z,32.40
2022-08-03T09:45:28.035Z,32.00
2022-08-03T09:49:29.814Z,31.90
2022-08-03T09:53:31.811Z,31.90
2022-08-03T09:57:33.680Z,32.30
2022-08-03T10:01:37.134Z,32.40
2022-08-03T10:05:44.412Z,32.70
2022-08-03T10:10:29.059Z,32.70
2022-08-03T10:14:20.696Z,32.80
2022-08-03T10:18:22.402Z,32.70
2022-08-03T10:22:27.136Z,32.80
2022-08-03T10:26:32.956Z,32.60
2022-08-03T10:30:36.511Z,32.50
2022-08-03T10:34:44.405Z,32.20
2022-08-03T10:38:54.995Z,32.40
2022-08-03T10:43:02.635Z,32.60
2022-08-03T10:47:04.938Z,32.90
2022-08-03T10:51:07.498Z,32.90
2022-08-03T10:55:48.777Z,33.30
2022-08-03T10:59:57.225Z,33.30
2022-08-03T11:03:58.989Z,32.90
2022-08-03T11:08:24.104Z,32.60
2022-08-03T11:12:31.118Z,32.40
2022-08-03T11:16:38.331Z,32.40
2022-08-03T11:20:50.778Z,32.40
2022-08-03T11:24:56.266Z,32.10
2022-08-03T11:29:30.628Z,32.00
2022-08-03T11:33:32.397Z,32.20
2022-08-03T11:37:34.194Z,32.20
2022-08-03T11:41:44.927Z,32.20
2022-08-03T11:46:28.459Z,32.30
2022-08-03T11:50:37.842Z,32.20
2022-08-03T11:54:40.712Z,32.20
2022-08-03T11:59:13.165Z,32.20
2022-08-03T12:03:14.739Z,32.20
2022-08-03T12:08:02.442Z,32.40
2022-08-03T12:11:39.336Z,32.60
2022-08-03T12:16:01.137Z,32.50
2022-08-03T12:20:05.388Z,32.50
2022-08-03T12:24:07.146Z,32.60
2022-08-03T12:28:36.973Z,32.50
2022-08-03T12:32:42.629Z,32.30
2022-08-03T12:36:59.136Z,32.40
2022-08-03T12:41:04.619Z,32.40
2022-08-03T12:45:26.697Z,32.30
2022-08-03T12:49:30.463Z,32.20
2022-08-03T12:53:32.263Z,32.20
2022-08-03T12:57:41.967Z,32.30
2022-08-03T13:01:52.191Z,32.30
2022-08-03T13:05:57.372Z,32.40
2022-08-03T13:09:59.091Z,32.60
2022-08-03T13:14:01.060Z,32.70
2022-08-03T13:18:02.740Z,32.70
2022-08-03T13:22:12.273Z,33.00
2022-08-03T13:26:14.020Z,32.90
2022-08-03T13:30:24.974Z,32.80
2022-08-03T13:34:32.272Z,32.50
2022-08-03T13:38:34.070Z,32.40
2022-08-03T13:42:36.539Z,32.60
2022-08-03T13:46:38.416Z,32.80
2022-08-03T13:50:43.056Z,32.90
2022-08-03T13:54:46.265Z,32.90
2022-08-03T13:58:48.977Z,33.20
2022-08-03T14:02:50.649Z,33.70
2022-08-03T14:06:52.365Z,34.00
2022-08-03T14:10:54.124Z,34.10
2022-08-03T14:14:58.270Z,33.80
2022-08-03T14:19:03.731Z,33.50
2022-08-03T14:23:07.465Z,33.10
2022-08-03T14:27:09.468Z,33.20
2022-08-03T14:32:09.240Z,33.40
2022-08-03T14:35:32.915Z,33.40
2022-08-03T14:44:01.405Z,33.60
2022-08-03T14:50:27.792Z,33.70
2022-08-03T14:52:26.497Z,33.70
2022-08-03T14:56:28.177Z,33.90
2022-08-03T15:00:29.878Z,33.60
2022-08-03T15:04:31.579Z,33.20
2022-08-03T15:08:33.258Z,33.00
2022-08-03T15:12:34.922Z,33.10
2022-08-03T15:16:37.500Z,33.00
2022-08-03T15:20:45.074Z,33.10
2022-08-03T15:24:47.903Z,33.00
2022-08-03T15:28:49.661Z,32.90
2022-08-03T15:32:51.358Z,32.80
2022-08-03T15:36:53.143Z,32.60
2022-08-03T15:40:55.139Z,32.50
2022-08-03T15:44:56.891Z,32.20
2022-08-03T15:48:58.632Z,32.10
2022-08-03T15:53:00.342Z,32.10
2022-08-03T15:57:02.004Z,31.90
2022-08-03T16:01:05.005Z,31.80
2022-08-03T16:05:07.280Z,31.60
2022-08-03T16:09:23.112Z,31.40
2022-08-03T16:14:11.959Z,31.50
2022-08-03T16:17:52.610Z,31.30
2022-08-03T16:21:54.585Z,31.40
2022-08-03T16:25:56.922Z,31.20
2022-08-03T16:29:58.610Z,31.10
2022-08-03T16:34:00.371Z,31.10
2022-08-03T16:38:09.306Z,31.00
2022-08-03T16:42:11.743Z,30.90
2022-08-03T16:46:13.396Z,30.70
2022-08-03T16:54:41.739Z,30.60
2022-08-03T16:58:44.524Z,30.60
2022-08-03T17:02:51.039Z,30.40
2022-08-03T17:06:53.326Z,30.30
2022-08-03T17:10:55.912Z,30.30
2022-08-03T17:14:57.681Z,30.60
2022-08-03T17:19:04.103Z,30.40
2022-08-03T17:23:34.667Z,30.10
2022-08-03T17:28:50.675Z,30.10
2022-08-03T17:32:06.538Z,30.10
2022-08-03T17:36:11.761Z,29.90
2022-08-03T17:40:17.443Z,29.90
2022-08-03T17:44:33.219Z,29.80
2022-08-03T17:48:42.673Z,29.80
2022-08-03T17:52:48.900Z,29.70
2022-08-03T17:57:26.474Z,29.60
2022-08-03T18:02:29.757Z,29.40
2022-08-03T18:06:38.406Z,29.30
2022-08-03T18:11:14.317Z,29.00
2022-08-03T18:15:24.713Z,28.80
2022-08-03T18:20:00.903Z,28.60
2022-08-03T18:23:52.189Z,28.40
2022-08-03T18:27:54.459Z,28.10
2022-08-03T18:32:03.836Z,27.80
2022-08-03T18:36:18.057Z,27.60
2022-08-03T18:40:24.997Z,27.30
2022-08-03T18:44:46.459Z,27.10
2022-08-03T18:49:34.017Z,26.70
2022-08-03T18:54:03.419Z,26.40
2022-08-03T18:58:15.695Z,26.00
2022-08-03T19:02:39.047Z,25.70
2022-08-03T19:06:47.006Z,25.50
2022-08-03T19:11:00.628Z,25.30
2022-08-03T19:15:12.965Z,25.00
2022-08-03T19:19:18.337Z,24.80
2022-08-03T19:23:25.063Z,24.50
2022-08-03T19:27:28.396Z,24.40
2022-08-03T19:31:31.170Z,24.20
2022-08-03T19:35:56.798Z,24.00
2022-08-03T19:40:00.453Z,23.80
2022-08-03T19:44:07.241Z,23.60
2022-08-03T19:48:13.176Z,23.40
2022-08-03T19:52:16.882Z,23.30
2022-08-03T19:56:25.108Z,23.20
2022-08-03T20:00:34.020Z,23.00
2022-08-03T20:04:40.148Z,22.80
2022-08-03T20:13:04.292Z,22.50
2022-08-03T20:17:09.287Z,22.30
2022-08-03T20:21:15.090Z,22.30
2022-08-03T20:25:55.687Z,22.10
2022-08-03T20:30:06.288Z,22.00
2022-08-03T20:34:09.421Z,22.00
2022-08-03T20:38:12.053Z,21.90
2022-08-03T20:42:13.787Z,21.80
2022-08-03T20:46:29.691Z,21.60
2022-08-03T20:50:35.952Z,21.50
2022-08-03T20:54:38.245Z,21.50
2022-08-03T20:58:42.415Z,21.50
2022-08-03T21:02:52.007Z,21.20
2022-08-03T21:07:00.944Z,21.20
2022-08-03T21:11:11.553Z,21.10
2022-08-03T21:13:11.243Z,22.60
2022-08-03T21:15:59.629Z,21.00
2022-08-03T21:19:40.234Z,21.00
2022-08-03T21:23:55.368Z,20.90
2022-08-03T21:27:57.774Z,20.80
2022-08-03T21:32:00.729Z,20.70
2022-08-03T21:36:02.792Z,20.70
2022-08-03T21:40:06.595Z,20.60
2022-08-03T21:48:26.605Z,20.50
2022-08-03T21:52:29.510Z,20.50
2022-08-03T21:56:45.526Z,20.40
2022-08-03T22:00:47.453Z,20.40
2022-08-03T22:04:55.573Z,20.50
2022-08-03T22:08:58.873Z,20.50
2022-08-03T22:13:00.668Z,20.50
2022-08-03T22:17:03.347Z,20.60
2022-08-03T22:21:11.592Z,20.70
2022-08-03T22:25:15.636Z,20.80
2022-08-03T22:29:17.470Z,20.90
2022-08-03T22:33:19.351Z,21.10
2022-08-03T22:37:25.123Z,21.30
2022-08-03T22:41:29.425Z,21.50
2022-08-03T22:46:06.113Z,21.70
2022-08-03T22:50:31.421Z,21.70
2022-08-03T22:54:19.163Z,21.80
2022-08-03T22:58:21.044Z,21.90
2022-08-03T23:02:24.182Z,22.00
2022-08-03T23:06:27.175Z,22.00
2022-08-03T23:10:30.537Z,22.00
2022-08-03T23:14:38.364Z,22.10
2022-08-03T23:18:42.648Z,22.10
2022-08-03T23:22:44.655Z,22.10
2022-08-03T23:26:50.879Z,22.10
2022-08-03T23:30:55.159Z,22.00
2022-08-03T23:35:23.363Z,21.90
2022-08-03T23:39:47.016Z,21.80
2022-08-03T23:43:52.053Z,21.90
2022-08-03T23:47:55.835Z,21.90
2022-08-03T23:52:03.390Z,21.90
2022-08-03T23:56:11.298Z,22.00
